createdAt,value
2023-08-24T00:01:09.720Z,12.82
2023-08-24T00:04:15.205Z,16.05
2023-08-24T00:07:21.297Z,11.35
2023-08-24T00:10:26.848Z,12.95
2023-08-24T00:13:34.875Z,13.35
2023-08-24T00:16:40.298Z,11.25
2023-08-24T00:19:45.645Z,10.00
2023-08-24T00:22:51.141Z,12.23
2023-08-24T00:25:56.649Z,9.18
2023-08-24T00:29:04.593Z,13.80
2023-08-24T00:32:10.980Z,8.43
2023-08-24T00:35:17.174Z,7.18
2023-08-24T00:38:22.592Z,10.18
2023-08-24T00:41:28.566Z,5.80
2023-08-24T00:44:36.721Z,6.47
2023-08-24T00:47:42.909Z,8.55
2023-08-24T00:50:51.342Z,6.63
2023-08-24T00:53:58.853Z,5.75
2023-08-24T00:57:04.608Z,5.15
2023-08-24T01:00:15.139Z,5.80
2023-08-24T01:03:20.657Z,7.72
2023-08-24T01:06:26.040Z,5.60
2023-08-24T01:09:31.586Z,6.07
2023-08-24T01:12:40.843Z,5.43
2023-08-24T01:15:52.460Z,8.70
2023-08-24T01:18:58.823Z,5.43
2023-08-24T01:22:06.140Z,5.75
2023-08-24T01:25:16.152Z,6.78
2023-08-24T01:28:24.935Z,6.03
2023-08-24T01:31:30.452Z,6.22
2023-08-24T01:34:36.671Z,4.75
2023-08-24T01:37:43.332Z,7.20
2023-08-24T01:40:52.598Z,7.03
2023-08-24T01:44:02.029Z,5.53
2023-08-24T01:47:09.348Z,8.80
2023-08-24T01:50:14.786Z,7.13
2023-08-24T01:53:21.015Z,6.00
2023-08-24T01:56:26.603Z,7.75
2023-08-24T01:59:35.024Z,6.03
2023-08-24T02:02:40.598Z,5.28
2023-08-24T02:05:46.340Z,6.18
2023-08-24T02:08:51.677Z,4.32
2023-08-24T02:11:57.274Z,4.70
2023-08-24T02:15:05.566Z,5.80
2023-08-24T02:18:11.366Z,4.35
2023-08-24T02:21:17.564Z,5.82
2023-08-24T02:24:23.245Z,5.25
2023-08-24T02:27:28.616Z,5.18
2023-08-24T02:30:36.580Z,10.13
2023-08-24T02:33:42.175Z,5.43
2023-08-24T02:36:48.744Z,5.68
2023-08-24T02:39:54.285Z,4.85
2023-08-24T02:42:59.939Z,4.57
2023-08-24T02:46:09.020Z,5.60
2023-08-24T02:49:14.975Z,6.43
2023-08-24T02:52:23.458Z,5.30
2023-08-24T02:55:29.114Z,5.00
2023-08-24T02:58:34.747Z,8.85
2023-08-24T03:01:43.018Z,4.85
2023-08-24T03:04:49.045Z,6.40
2023-08-24T03:07:56.749Z,6.22
2023-08-24T03:11:02.459Z,3.80
2023-08-24T03:14:07.780Z,6.00
2023-08-24T03:17:17.439Z,6.10
2023-08-24T03:20:23.805Z,7.18
2023-08-24T03:23:29.561Z,6.70
2023-08-24T03:26:35.169Z,4.75
2023-08-24T03:29:40.614Z,4.95
2023-08-24T03:32:48.850Z,4.40
2023-08-24T03:35:54.257Z,6.93
2023-08-24T03:39:00.101Z,5.78
2023-08-24T03:42:08.749Z,5.38
2023-08-24T03:45:14.322Z,7.88
2023-08-24T03:48:22.738Z,7.47
2023-08-24T03:51:29.224Z,7.65
2023-08-24T03:54:35.970Z,9.05
2023-08-24T03:57:41.959Z,5.75
2023-08-24T04:00:48.833Z,7.68
2023-08-24T04:03:59.069Z,7.00
2023-08-24T04:07:05.502Z,7.22
2023-08-24T04:10:11.692Z,8.18
2023-08-24T04:13:17.801Z,7.40
2023-08-24T04:16:23.240Z,11.27
2023-08-24T04:19:31.467Z,8.85
2023-08-24T04:22:37.093Z,6.40
2023-08-24T04:25:44.796Z,8.27
2023-08-24T04:28:50.538Z,6.93
2023-08-24T04:31:55.940Z,7.75
2023-08-24T04:35:04.445Z,8.85
2023-08-24T04:38:12.350Z,7.82
2023-08-24T04:41:17.544Z,8.85
2023-08-24T04:44:23.157Z,6.43
2023-08-24T04:47:28.787Z,10.82
2023-08-24T04:50:36.951Z,9.82
2023-08-24T04:53:42.417Z,9.07
2023-08-24T04:56:47.916Z,8.98
2023-08-24T04:59:53.243Z,9.57
2023-08-24T05:02:58.725Z,9.40
2023-08-24T05:06:06.714Z,10.60
2023-08-24T05:09:12.352Z,8.63
2023-08-24T05:12:17.813Z,8.77
2023-08-24T05:15:23.313Z,11.82
2023-08-24T05:18:28.632Z,9.50
2023-08-24T05:21:36.671Z,10.73
2023-08-24T05:24:41.816Z,10.77
2023-08-24T05:27:47.377Z,13.13
2023-08-24T05:30:52.802Z,10.50
2023-08-24T05:33:58.084Z,9.80
2023-08-24T05:37:06.162Z,8.77
2023-08-24T05:40:12.180Z,11.10
2023-08-24T05:43:18.174Z,8.70
2023-08-24T05:46:24.072Z,8.50
2023-08-24T05:49:29.699Z,12.77
2023-08-24T05:52:37.515Z,9.65
2023-08-24T05:55:42.814Z,9.15
2023-08-24T05:58:48.134Z,10.75
2023-08-24T06:01:53.301Z,10.40
2023-08-24T06:04:58.696Z,9.02
2023-08-24T06:08:06.798Z,12.13
2023-08-24T06:11:11.965Z,12.43
2023-08-24T06:14:17.262Z,14.23
2023-08-24T06:17:22.683Z,12.43
2023-08-24T06:20:28.017Z,10.85
2023-08-24T06:23:36.148Z,13.02
2023-08-24T06:26:41.352Z,14.00
2023-08-24T06:29:47.216Z,12.55
2023-08-24T06:32:52.452Z,9.32
2023-08-24T06:35:57.891Z,9.07
2023-08-24T06:39:06.209Z,11.45
2023-08-24T06:42:11.682Z,10.27
2023-08-24T06:45:18.342Z,8.90
2023-08-24T06:48:23.754Z,12.00
2023-08-24T06:51:29.317Z,13.35
2023-08-24T06:54:37.272Z,9.43
2023-08-24T06:57:42.753Z,9.00
2023-08-24T07:00:48.204Z,8.18
2023-08-24T07:03:53.334Z,12.45
2023-08-24T07:06:59.187Z,12.50
2023-08-24T07:10:07.824Z,13.27
2023-08-24T07:13:13.675Z,7.78
2023-08-24T07:16:19.098Z,10.60
2023-08-24T07:19:24.670Z,7.38
2023-08-24T07:22:30.679Z,12.55
2023-08-24T07:25:38.588Z,11.00
2023-08-24T07:28:43.991Z,9.82
2023-08-24T07:31:49.642Z,10.48
2023-08-24T07:34:55.011Z,8.23
2023-08-24T07:38:00.858Z,8.85
2023-08-24T07:41:08.648Z,11.18
2023-08-24T07:44:14.491Z,10.48
2023-08-24T07:47:20.095Z,10.90
2023-08-24T07:50:26.814Z,8.52
2023-08-24T07:53:34.171Z,8.23
2023-08-24T07:56:42.469Z,10.57
2023-08-24T07:59:47.831Z,8.88
2023-08-24T08:02:54.221Z,7.82
2023-08-24T08:05:59.926Z,10.70
2023-08-24T08:09:05.529Z,8.95
2023-08-24T08:12:13.704Z,10.35
2023-08-24T08:15:19.083Z,7.60
2023-08-24T08:18:24.444Z,7.80
2023-08-24T08:21:29.741Z,9.98
2023-08-24T08:24:35.186Z,7.05
2023-08-24T08:27:43.292Z,8.13
2023-08-24T08:30:48.544Z,12.10
2023-08-24T08:33:54.075Z,8.23
2023-08-24T08:36:59.922Z,10.88
2023-08-24T08:40:07.409Z,8.77
2023-08-24T08:43:15.226Z,10.02
2023-08-24T08:46:20.630Z,6.57
2023-08-24T08:49:25.920Z,8.68
2023-08-24T08:52:31.203Z,12.82
2023-08-24T08:55:36.912Z,8.02
2023-08-24T08:58:45.598Z,8.95
2023-08-24T09:01:52.274Z,10.88
2023-08-24T09:04:57.463Z,10.50
2023-08-24T09:08:04.422Z,8.63
2023-08-24T09:11:09.771Z,10.90
2023-08-24T09:14:17.775Z,10.82
2023-08-24T09:17:25.903Z,9.77
2023-08-24T09:23:36.429Z,9.38
2023-08-24T09:26:44.307Z,6.80
2023-08-24T09:29:54.555Z,8.68
2023-08-24T09:33:00.038Z,16.70
2023-08-24T09:36:05.820Z,6.38
2023-08-24T09:39:11.830Z,9.82
2023-08-24T09:42:17.921Z,6.53
2023-08-24T09:45:26.031Z,10.40
2023-08-24T09:51:37.787Z,6.88
2023-08-24T09:54:43.941Z,7.53
2023-08-24T09:57:50.450Z,11.73
2023-08-24T10:00:58.903Z,7.28
2023-08-24T10:04:04.831Z,7.15
2023-08-24T10:07:13.140Z,6.72
2023-08-24T10:13:28.119Z,10.95
2023-08-24T10:16:36.394Z,6.07
2023-08-24T10:19:42.083Z,6.43
2023-08-24T10:22:48.151Z,4.68
2023-08-24T10:25:54.888Z,5.35
2023-08-24T10:29:01.780Z,6.10
2023-08-24T10:32:10.145Z,4.22
2023-08-24T10:35:17.180Z,5.05
2023-08-24T10:38:29.690Z,7.72
2023-08-24T10:41:50.082Z,4.97
2023-08-24T10:44:55.480Z,4.72
2023-08-24T10:48:03.719Z,6.78
2023-08-24T10:51:23.204Z,4.95
2023-08-24T10:54:34.516Z,3.63
2023-08-24T10:57:44.007Z,5.63
2023-08-24T11:00:54.200Z,5.05
2023-08-24T11:04:02.052Z,3.83
2023-08-24T11:07:07.888Z,5.80
2023-08-24T11:10:17.219Z,4.72
2023-08-24T11:13:24.486Z,6.97
2023-08-24T11:16:47.604Z,4.43
2023-08-24T11:19:57.116Z,7.38
2023-08-24T11:23:02.604Z,5.30
2023-08-24T11:26:07.817Z,3.33
2023-08-24T11:29:13.819Z,4.40
2023-08-24T11:32:19.374Z,4.47
2023-08-24T11:35:27.451Z,4.75
2023-08-24T11:38:42.337Z,5.10
2023-08-24T11:41:50.106Z,9.15
2023-08-24T11:44:55.554Z,4.97
2023-08-24T11:48:02.331Z,4.93
2023-08-24T11:51:13.698Z,6.22
2023-08-24T11:54:19.443Z,3.25
2023-08-24T11:57:26.422Z,3.55
2023-08-24T12:00:31.945Z,5.82
2023-08-24T12:03:37.297Z,3.95
2023-08-24T12:06:45.485Z,7.50
2023-08-24T12:16:04.724Z,4.10
2023-08-24T12:19:12.521Z,4.53
2023-08-24T12:22:20.552Z,3.03
2023-08-24T12:25:29.381Z,3.55
2023-08-24T12:28:34.705Z,3.20
2023-08-24T12:31:40.530Z,2.85
2023-08-24T12:34:45.990Z,6.50
2023-08-24T12:37:54.065Z,5.65
2023-08-24T12:40:59.194Z,3.65
2023-08-24T12:44:07.018Z,3.13
2023-08-24T12:47:12.405Z,2.88
2023-08-24T12:50:17.885Z,4.07
2023-08-24T12:53:25.589Z,5.35
2023-08-24T12:56:30.978Z,3.60
2023-08-24T12:59:36.283Z,3.00
2023-08-24T13:02:41.607Z,4.50
2023-08-24T13:05:46.965Z,4.57
2023-08-24T13:08:54.883Z,4.10
2023-08-24T13:15:05.772Z,3.65
2023-08-24T13:18:12.262Z,2.97
2023-08-24T13:21:18.694Z,3.50
2023-08-24T13:24:27.342Z,3.60
2023-08-24T13:27:32.803Z,4.28
2023-08-24T13:30:38.273Z,6.95
2023-08-24T13:33:43.446Z,4.10
2023-08-24T13:36:48.859Z,3.67
2023-08-24T13:39:56.872Z,4.93
2023-08-24T13:43:02.210Z,4.00
2023-08-24T13:46:07.937Z,2.58
2023-08-24T13:49:19.759Z,3.45
2023-08-24T13:52:31.486Z,4.15
2023-08-24T13:55:39.881Z,3.72
2023-08-24T13:58:45.587Z,3.47
2023-08-24T14:01:50.801Z,5.70
2023-08-24T14:04:56.010Z,5.30
2023-08-24T14:08:01.158Z,15.02
2023-08-24T14:11:10.140Z,4.72
2023-08-24T14:14:15.388Z,3.50
2023-08-24T14:17:20.788Z,5.95
2023-08-24T14:20:26.124Z,4.88
2023-08-24T14:23:31.961Z,3.33
2023-08-24T14:26:40.811Z,4.45
2023-08-24T14:29:46.384Z,4.68
2023-08-24T14:32:51.606Z,3.20
2023-08-24T14:35:57.195Z,8.27
2023-08-24T14:39:02.626Z,4.75
2023-08-24T14:42:10.905Z,7.63
